• Join FlightAware (Why Join?)
  • Login
  • US Flag 
05:41PM EDT


 

Airport Tracker/Info


-or-


 

Live Flight TrackerFlight Track Log ✈ AZU2489 ✈ 13-Jul-2014 ✈ SBBH / PLU - SBGR / GRU

Flight Track Log - Related Links

Times and Time Zones

All times are in EDT time to prevent confusion due to time zone crossing. See the AZU2489 flight status page for this flight to view local times or setup timezone preferences in your user account.

Time Position Orientation Groundspeed Altitude Reporting Facility
EDT Latitude Longitude Course Direction KTS MPH feet Rate Location/Type
03:03PM -19.8500 -43.9523 110° East 117 135 2,300  Level FlightAware ADS-B (SBBH / PLU)
03:03PM -19.8533 -43.9431 112° Southeast 119 137 2,700 1,680 Climbing FlightAware ADS-B (SBBH / PLU)
03:04PM -19.8574 -43.9325 113° Southeast 121 139 3,300 1,740 Climbing FlightAware ADS-B (RKSM / SSN)
03:04PM -19.8609 -43.9243 114° Southeast 120 138 3,700 1,320 Climbing FlightAware ADS-B (SBBH / PLU)
03:04PM -19.8642 -43.9161 113° Southeast 125 144 4,000 960 Climbing FlightAware ADS-B (SBBH / PLU)
03:05PM -19.8679 -43.9071 112° Southeast 135 155 4,200 960 Climbing FlightAware ADS-B (RKSM / SSN)
03:05PM -19.8707 -43.9008 118° Southeast 141 162 4,400 720 Climbing FlightAware ADS-B (SBBH / PLU)
03:05PM -19.8725 -43.8975 123° Southeast 146 168 4,400 660 Level FlightAware ADS-B (SBBH / PLU)
03:05PM -19.8746 -43.8950 134° Southeast 154 177 4,500 660 Climbing FlightAware ADS-B (SBBH / PLU)
03:05PM -19.8777 -43.8925 146° Southeast 163 188 4,500  Level FlightAware ADS-B (SBBH / PLU)
03:05PM -19.8812 -43.8908 159° South 171 197 4,500 600 Level FlightAware ADS-B (SBBH / PLU)
03:05PM -19.8853 -43.8899 173° South 180 207 4,600 600 Climbing FlightAware ADS-B (SBBH / PLU)
03:05PM -19.8888 -43.8900 184° South 185 213 4,600 600 Level FlightAware ADS-B (RKSM / SSN)
03:05PM -19.8938 -43.8913 199° South 191 220 4,700 1,200 Climbing FlightAware ADS-B (SBBH / PLU)
03:05PM -19.8978 -43.8935 212° Southwest 193 222 4,800 1,200 Climbing FlightAware ADS-B (RKSM / SSN)
03:05PM -19.9014 -43.8967 224° Southwest 195 224 4,900 1,080 Climbing FlightAware ADS-B (SBBH / PLU)
03:06PM -19.9042 -43.9003 235° Southwest 197 227 5,000 600 Climbing FlightAware ADS-B (SBBH / PLU)
03:06PM -19.9065 -43.9047 246° West 199 229 5,000 600 Level FlightAware ADS-B (SBBH / PLU)
03:06PM -19.9077 -43.9092 258° West 198 228 5,100 1,200 Climbing FlightAware ADS-B (SBBH / PLU)
03:06PM -19.9083 -43.9140 267° West 196 226 5,200 1,200 Climbing FlightAware ADS-B (SBBH / PLU)
03:06PM -19.9084 -43.9285 270° West 199 229 5,500 1,140 Climbing FlightAware ADS-B (SBBH / PLU)
03:06PM -19.9085 -43.9344 268° West 199 229 5,600 1,200 Climbing FlightAware ADS-B (RKSM / SSN)
03:06PM -19.9102 -43.9532 266° West 200 230 6,000 1,200 Climbing FlightAware ADS-B (SBBH / PLU)
03:07PM -19.9101 -43.9582 276° West 199 229 6,100 1,980 Climbing FlightAware ADS-B (SBBH / PLU)
03:07PM -19.9091 -43.9629 286° West 197 227 6,300 1,800 Climbing FlightAware ADS-B (SBBH / PLU)
03:07PM -19.9076 -43.9666 296° West 194 223 6,400 1,080 Climbing FlightAware ADS-B (SBBH / PLU)
03:07PM -19.9050 -43.9711 306° West 192 221 6,500 1,200 Climbing FlightAware ADS-B (SBBH / PLU)
03:07PM -19.9019 -43.9746 318° Northwest 191 220 6,600 1,200 Climbing FlightAware ADS-B (SBBH / PLU)
03:07PM -19.8981 -43.9774 329° Northwest 189 217 6,700 1,200 Climbing FlightAware ADS-B (SBBH / PLU)
03:07PM -19.8949 -43.9791 336° Northwest 189 217 6,800 1,260 Climbing FlightAware ADS-B (SBBH / PLU)
03:07PM -19.8819 -43.9848 339° North 192 221 7,100 960 Climbing FlightAware ADS-B (SBBH / PLU)
03:08PM -19.8693 -43.9900 340° North 195 224 7,300 960 Climbing FlightAware ADS-B (SBBH / PLU)
03:08PM -19.8565 -43.9951 340° North 198 228 7,600 960 Climbing FlightAware ADS-B (SBBH / PLU)
03:08PM -19.8439 -44.0002 340° North 200 230 7,800 780 Climbing FlightAware ADS-B (SBBH / PLU)
03:08PM -19.8379 -44.0026 343° North 201 231 7,900 1,200 Climbing FlightAware ADS-B (RKSM / SSN)
03:08PM -19.8297 -44.0046 351° North 200 230 8,100 1,020 Climbing FlightAware ADS-B (SBBH / PLU)
03:09PM -19.8161 -44.0067 352° North 202 232 8,300 1,020 Climbing FlightAware ADS-B (SBBH / PLU)
03:09PM -19.8020 -44.0090 352° North 204 235 8,600 960 Climbing FlightAware ADS-B (SBBH / PLU)
03:09PM -19.7876 -44.0113 352° North 205 236 8,800 960 Climbing FlightAware ADS-B (SBBH / PLU)
03:09PM -19.7733 -44.0136 352° North 203 234 9,100 1,200 Climbing FlightAware ADS-B (SBBH / PLU)
03:10PM -19.7599 -44.0158 352° North 198 228 9,400 1,260 Climbing FlightAware ADS-B (SBBH / PLU)
03:10PM -19.7559 -44.0164 351° North 201 231 9,500 1,200 Climbing FlightAware ADS-B (SIAB)
03:10PM -19.7463 -44.0180 352° North 199 229 9,700 960 Climbing FlightAware ADS-B (SBBH / PLU)
03:10PM -19.7324 -44.0203 351° North 200 230 9,900 900 Climbing FlightAware ADS-B (SBBH / PLU)
03:10PM -19.7277 -44.0215 344° North 201 231 10,000 1,200 Climbing FlightAware ADS-B (SBBH / PLU)
03:10PM -19.7197 -44.0265 319° Northwest 200 230 10,200 660 Climbing FlightAware ADS-B (SBBH / PLU)
03:10PM -19.7159 -44.0317 305° West 200 230 10,200 600 Level FlightAware ADS-B (RKSM / SSN)
03:10PM -19.7145 -44.0346 294° West 202 232 10,300 1,320 Climbing FlightAware ADS-B (SBBH / PLU)
03:11PM -19.7132 -44.0397 280° West 201 231 10,400 600 Climbing FlightAware ADS-B (RKSM / SSN)
03:11PM -19.7134 -44.0542 263° West 203 234 10,500 780 Climbing FlightAware ADS-B (SBBH / PLU)
03:11PM -19.7197 -44.0836 256° West 205 236 11,000 900 Climbing FlightAware ADS-B (SBBH / PLU)
03:12PM -19.7265 -44.1129 257° West 203 234 11,400 780 Climbing FlightAware ADS-B (SBBH / PLU)
03:12PM -19.7323 -44.1424 264° West 205 236 11,800 780 Climbing FlightAware ADS-B (SBBH / PLU)
03:13PM -19.7319 -44.1725 273° West 206 237 12,200 780 Climbing FlightAware ADS-B (SBBH / PLU)
03:13PM -19.7308 -44.2030 272° West 205 236 12,600 660 Climbing FlightAware ADS-B (SBBH / PLU)
03:14PM -19.7317 -44.2326 251° West 204 235 12,900 600 Climbing FlightAware ADS-B (SBBH / PLU)
03:14PM -19.7368 -44.2416 231° Southwest 203 234 13,000 600 Climbing FlightAware ADS-B (SBBH / PLU)
03:14PM -19.7566 -44.2638 226° Southwest 209 241 13,300 660 Climbing FlightAware ADS-B (SBBH / PLU)
03:15PM -19.7771 -44.2857 226° Southwest 207 238 13,700 780 Climbing FlightAware ADS-B (SBBH / PLU)
03:15PM -19.7968 -44.3071 226° Southwest 201 231 14,100 780 Climbing FlightAware ADS-B (SBBH / PLU)
03:16PM -19.8162 -44.3282 226° Southwest 195 224 14,500 660 Climbing FlightAware ADS-B (SBBH / PLU)
03:16PM -19.8351 -44.3487 226° Southwest 196 226 14,800 660 Climbing FlightAware ADS-B (SBBH / PLU)
03:17PM -19.8545 -44.3699 226° Southwest 196 226 15,200 600 Climbing FlightAware ADS-B (SBBH / PLU)
03:17PM -19.8287 -44.3418 226° Southwest 198 228 15,400 360 Climbing FlightAware ADS-B (SIAB)
03:17PM -19.8739 -44.3909 226° Southwest 198 228 15,400 540 Level FlightAware ADS-B (SBBH / PLU)
03:18PM -19.8933 -44.4121 226° Southwest 198 228 15,700 540 Climbing FlightAware ADS-B (SBBH / PLU)
03:18PM -19.8951 -44.4140 226° Southwest 198 228 15,700 600 Level FlightAware ADS-B (SIAB)
03:18PM -19.9127 -44.4332 226° Southwest 200 230 16,000 480 Climbing FlightAware ADS-B (SBBH / PLU)
03:19PM -19.9323 -44.4545 226° Southwest 202 232 16,200 480 Climbing FlightAware ADS-B (SBBH / PLU)
03:19PM -19.9518 -44.4756 226° Southwest 202 232 16,500 480 Climbing FlightAware ADS-B (SBBH / PLU)
03:20PM -19.9717 -44.4973 226° Southwest 203 234 16,700 420 Climbing FlightAware ADS-B (SBBH / PLU)
03:20PM -19.9898 -44.5170 226° Southwest 205 236 16,900 360 Climbing FlightAware ADS-B (SIAB)
03:20PM -19.9918 -44.5191 226° Southwest 205 236 16,900 540 Level FlightAware ADS-B (SBBH / PLU)
03:21PM -20.0115 -44.5406 226° Southwest 204 235 17,200 540 Climbing FlightAware ADS-B (SBBH / PLU)
03:21PM -20.0136 -44.5429 226° Southwest 205 236 17,200 420 Level FlightAware ADS-B (SIAB)
03:22PM -20.0406 -44.5667 206° Southwest 205 236 17,500 360 Climbing FlightAware ADS-B (SBBH / PLU)
03:22PM -20.0482 -44.5701 203° Southwest 205 236 17,500 360 Level FlightAware ADS-B (SIAB)
03:22PM -20.0669 -44.5786 204° Southwest 205 236 17,700 420 Climbing FlightAware ADS-B (SBBH / PLU)
03:22PM -20.0804 -44.5847 203° Southwest 206 237 17,800 180 Climbing FlightAware ADS-B (SIAB)
03:23PM -20.0932 -44.5905 204° Southwest 206 237 17,800 300 Level FlightAware ADS-B (SBBH / PLU)
03:23PM -20.1183 -44.6019 203° Southwest 208 239 18,000 360 Climbing FlightAware ADS-B (SIAB)
03:23PM -20.1196 -44.6025 203° Southwest 207 238 18,000 240 Level FlightAware ADS-B (SBBH / PLU)
03:23PM -20.1378 -44.6107 204° Southwest 208 239 18,100 720 Climbing FlightAware ADS-B (SBBH / PLU)
03:24PM -20.1537 -44.6180 203° Southwest 197 227 18,500 1,200 Climbing FlightAware ADS-B (SIAB)
03:24PM -20.1630 -44.6222 204° Southwest 188 216 18,700 900 Climbing FlightAware ADS-B (SBBH / PLU)
03:24PM -20.1847 -44.6320 203° Southwest 180 207 19,100 1,020 Climbing FlightAware ADS-B (SIAB)
03:24PM -20.1866 -44.6328 204° Southwest 179 206 19,200 720 Climbing FlightAware ADS-B (SBBH / PLU)
03:25PM -20.2092 -44.6431 204° Southwest 176 203 19,500 420 Climbing FlightAware ADS-B (SBBH / PLU)
03:25PM -20.2156 -44.6460 203° Southwest 177 204 19,500 180 Level FlightAware ADS-B (SIAB)
03:25PM -20.2324 -44.6536 204° Southwest 181 208 19,600 240 Climbing FlightAware ADS-B (SBBH / PLU)
03:26PM -20.2469 -44.6602 203° Southwest 185 213 19,700 360 Climbing FlightAware ADS-B (SIAB)
03:26PM -20.2552 -44.6640 204° Southwest 185 213 19,800 240 Climbing FlightAware ADS-B (SBBH / PLU)
03:26PM -20.2750 -44.6730 203° Southwest 190 219 19,900 300 Climbing FlightAware ADS-B (SIAB)
03:27PM -20.2845 -44.6772 204° Southwest 191 220 20,000 120 Climbing FlightAware ADS-B (SBBH / PLU)
03:27PM -20.3133 -44.6904 203° Southwest 201 231 20,000  Level FlightAware ADS-B (SIAB)
03:27PM -20.3178 -44.6924 204° Southwest 202 232 20,000  Level FlightAware ADS-B (SBBH / PLU)
03:28PM -20.3441 -44.7045 204° Southwest 213 245 20,000  Level FlightAware ADS-B (SBBH / PLU)
03:28PM -20.3489 -44.7067 203° Southwest 216 249 20,000  Level FlightAware ADS-B (SIAB)
03:28PM -20.3727 -44.7175 204° Southwest 222 255 20,000  Level FlightAware ADS-B (SBBH / PLU)
03:28PM -20.3866 -44.7238 203° Southwest 225 259 20,000  Level FlightAware ADS-B (SIAB)
03:29PM -20.4018 -44.7308 204° Southwest 228 262 20,000  Level FlightAware ADS-B (SBBH / PLU)
03:29PM -20.4247 -44.7412 203° Southwest 230 265 20,000 300 Level FlightAware ADS-B (SIAB)
03:29PM -20.4356 -44.7462 204° Southwest 223 257 20,200 1,260 Climbing FlightAware ADS-B (SBBH / PLU)
03:30PM -20.4620 -44.7581 203° Southwest 195 224 20,900 1,200 Climbing FlightAware ADS-B (SIAB)
03:30PM -20.4858 -44.7692 206° Southwest 177 204 21,400 900 Climbing FlightAware ADS-B (SBBH / PLU)
03:30PM -20.4922 -44.7731 212° Southwest 176 203 21,500 600 Climbing FlightAware ADS-B (SIAB)
03:31PM -20.4995 -44.7786 217° Southwest 177 204 21,600 240 Climbing FlightAware ADS-B (SBBH / PLU)
03:31PM -20.5195 -44.7943 217° Southwest 182 209 21,700 180 Climbing FlightAware ADS-B (SIAB)
03:32PM -20.5437 -44.8132 217° Southwest 185 213 21,800 120 Climbing FlightAware ADS-B (SBBH / PLU)
03:32PM -20.5465 -44.8154 216° Southwest 186 214 21,800 240 Level FlightAware ADS-B (SIAB)
03:32PM -20.5722 -44.8355 217° Southwest 190 219 22,000 300 Climbing FlightAware ADS-B (SBBH / PLU)
03:32PM -20.5746 -44.8374 216° Southwest 191 220 22,000  Level FlightAware ADS-B (SIAB)
03:33PM -20.6037 -44.8601 216° Southwest 197 227 22,000  Level FlightAware ADS-B (SIAB)
03:33PM -20.6045 -44.8607 217° Southwest 198 228 22,000  Level FlightAware ADS-B (SBBH / PLU)
03:34PM -20.6273 -44.8786 217° Southwest 204 235 22,000  Level FlightAware ADS-B (SBBH / PLU)
03:34PM -20.6338 -44.8836 216° Southwest 207 238 22,000  Level FlightAware ADS-B (SIAB)
03:34PM -20.6508 -44.8969 217° Southwest 211 243 22,000  Level FlightAware ADS-B (SBBH / PLU)
03:34PM -20.6657 -44.9086 216° Southwest 215 247 22,000  Level FlightAware ADS-B (SIAB)
03:35PM -20.6744 -44.9154 217° Southwest 216 249 22,000  Level FlightAware ADS-B (SBBH / PLU)
03:35PM -20.6983 -44.9340 216° Southwest 218 251 22,000  Level FlightAware ADS-B (SIAB)
03:35PM -20.6995 -44.9350 217° Southwest 218 251 22,000  Level FlightAware ADS-B (SBBH / PLU)
03:36PM -20.7237 -44.9538 217° Southwest 221 254 22,000  Level FlightAware ADS-B (SBBH / PLU)
03:36PM -20.7318 -44.9602 216° Southwest 222 255 22,000  Level FlightAware ADS-B (SIAB)
03:36PM -20.7491 -44.9741 220° Southwest 223 257 22,000  Level FlightAware ADS-B (SBBH / PLU)
03:36PM -20.7614 -44.9849 219° Southwest 224 258 22,000  Level FlightAware ADS-B (SIAB)
03:37PM -20.7723 -44.9945 220° Southwest 224 258 22,000  Level FlightAware ADS-B (SBBH / PLU)
03:37PM -20.7953 -45.0146 220° Southwest 225 259 22,000  Level FlightAware ADS-B (SIAB)
03:38PM -20.8218 -45.0378 220° Southwest 225 259 22,000  Level FlightAware ADS-B (SBBH / PLU)
03:38PM -20.8274 -45.0427 219° Southwest 225 259 22,000  Level FlightAware ADS-B (SIAB)
03:38PM -20.8451 -45.0582 220° Southwest 225 259 22,000  Level FlightAware ADS-B (SBBH / PLU)
03:38PM -20.8600 -45.0713 220° Southwest 226 260 22,000  Level FlightAware ADS-B (SIAB)
03:39PM -20.8700 -45.0801 220° Southwest 225 259 22,000  Level FlightAware ADS-B (SBBH / PLU)
03:39PM -20.8916 -45.0990 219° Southwest 227 261 22,000  Level FlightAware ADS-B (SIAB)
03:39PM -20.8945 -45.1016 220° Southwest 226 260 22,000  Level FlightAware ADS-B (SBBH / PLU)
03:40PM -20.9188 -45.1228 220° Southwest 228 262 22,000  Level FlightAware ADS-B (SBBH / PLU)
03:40PM -20.9265 -45.1296 220° Southwest 229 264 22,000  Level FlightAware ADS-B (SIAB)
03:40PM -20.9437 -45.1447 220° Southwest 228 262 22,000  Level FlightAware ADS-B (SBBH / PLU)
03:40PM -20.9582 -45.1574 220° Southwest 228 262 22,000  Level FlightAware ADS-B (SIAB)
03:41PM -20.9680 -45.1660 220° Southwest 228 262 22,000  Level FlightAware ADS-B (SBBH / PLU)
03:41PM -20.9927 -45.1878 220° Southwest 228 262 22,000  Level FlightAware ADS-B (SBBH / PLU)
03:42PM -21.0169 -45.2090 220° Southwest 227 261 22,000  Level FlightAware ADS-B (SBBH / PLU)
03:42PM -21.0096 -45.2026 220° Southwest 227 261 22,000  Level FlightAware ADS-B (SIAB)
03:42PM -21.0409 -45.2301 220° Southwest 226 260 22,000  Level FlightAware ADS-B (SBBH / PLU)
03:43PM -21.0902 -45.2735 220° Southwest 225 259 22,000  Level FlightAware ADS-B (SBBH / PLU)
03:44PM -21.1146 -45.2951 220° Southwest 227 261 22,000  Level FlightAware ADS-B (SBBH / PLU)
03:44PM -21.1350 -45.3131 220° Southwest 227 261 22,000  Level FlightAware ADS-B (SBBH / PLU)
03:45PM -21.1632 -45.3379 219° Southwest 229 264 22,000  Level FlightAware ADS-B (SBBH / PLU)
03:45PM -21.1987 -45.3640 215° Southwest 229 264 22,000  Level FlightAware ADS-B (SBBH / PLU)
03:46PM -21.2250 -45.3831 215° Southwest 229 264 22,000  Level FlightAware ADS-B (SBBH / PLU)
03:46PM -21.2507 -45.4018 215° Southwest 231 266 22,000  Level FlightAware ADS-B (SBBH / PLU)
03:47PM -21.2789 -45.4223 215° Southwest 231 266 22,000  Level FlightAware ADS-B (SBBH / PLU)
03:47PM -21.3053 -45.4415 215° Southwest 231 266 22,000  Level FlightAware ADS-B (SBBH / PLU)
03:48PM -21.3319 -45.4609 215° Southwest 231 266 22,000  Level FlightAware ADS-B (SBBH / PLU)
03:48PM -21.3576 -45.4795 215° Southwest 229 264 22,000  Level FlightAware ADS-B (SBBH / PLU)
03:49PM -21.3847 -45.4993 215° Southwest 228 262 22,000  Level FlightAware ADS-B (SBBH / PLU)
03:49PM -21.4109 -45.5183 215° Southwest 228 262 22,000  Level FlightAware ADS-B (SBBH / PLU)
03:50PM -21.4373 -45.5375 215° Southwest 227 261 22,000  Level FlightAware ADS-B (SBBH / PLU)
03:50PM -21.4632 -45.5564 215° Southwest 227 261 22,000  Level FlightAware ADS-B (SBBH / PLU)
03:51PM -21.4897 -45.5757 215° Southwest 227 261 22,000  Level FlightAware ADS-B (SBBH / PLU)
03:51PM -21.5162 -45.5952 215° Southwest 226 260 22,000  Level FlightAware ADS-B (SBBH / PLU)
03:52PM -21.5425 -45.6144 215° Southwest 226 260 22,000  Level FlightAware ADS-B (SBBH / PLU)
03:52PM -21.5685 -45.6334 215° Southwest 226 260 22,000  Level FlightAware ADS-B (SBBH / PLU)
03:53PM -21.5894 -45.6486 215° Southwest 226 260 22,000  Level FlightAware ADS-B (SBBH / PLU)
03:53PM -21.6208 -45.6716 215° Southwest 226 260 22,000  Level FlightAware ADS-B (SBBH / PLU)
03:54PM -21.6495 -45.6926 215° Southwest 225 259 22,000  Level FlightAware ADS-B (SDAM)
03:54PM -21.6752 -45.7114 215° Southwest 225 259 22,000  Level FlightAware ADS-B (SDAM)
03:55PM -21.7011 -45.7304 215° Southwest 225 259 22,000  Level FlightAware ADS-B (SDAM)
03:55PM -21.7261 -45.7487 215° Southwest 224 258 22,000  Level FlightAware ADS-B (SDAM)
03:56PM -21.7529 -45.7683 215° Southwest 224 258 22,000  Level FlightAware ADS-B (SDAM)
03:56PM -21.7788 -45.7873 215° Southwest 224 258 22,000  Level FlightAware ADS-B (SDAM)
03:57PM -21.8045 -45.8062 215° Southwest 224 258 22,000  Level FlightAware ADS-B (SDAM)
03:57PM -21.8305 -45.8253 215° Southwest 223 257 22,000  Level FlightAware ADS-B (SDAM)
03:58PM -21.8815 -45.8643 217° Southwest 225 259 22,000  Level FlightAware ADS-B (SDAM)
03:59PM -21.9067 -45.8846 217° Southwest 225 259 22,000  Level FlightAware ADS-B (SDAM)
03:59PM -21.9319 -45.9046 217° Southwest 225 259 22,000  Level FlightAware ADS-B (SDAM)
04:00PM -21.9575 -45.9250 217° Southwest 226 260 22,000  Level FlightAware ADS-B (SDAM)
04:00PM -21.9822 -45.9447 217° Southwest 226 260 22,000  Level FlightAware ADS-B (SDAM)
04:01PM -22.0081 -45.9653 217° Southwest 226 260 22,000  Level FlightAware ADS-B (SDAM)
04:01PM -22.0333 -45.9855 217° Southwest 227 261 22,000  Level FlightAware ADS-B (SDAM)
04:02PM -22.0589 -46.0059 217° Southwest 226 260 22,000  Level FlightAware ADS-B (SDAM)
04:02PM -22.0843 -46.0261 217° Southwest 226 260 22,000  Level FlightAware ADS-B (SDAM)
04:03PM -22.1079 -46.0450 217° Southwest 226 260 22,000  Level FlightAware ADS-B (SDAM)
04:03PM -22.1343 -46.0660 217° Southwest 225 259 22,000  Level FlightAware ADS-B (SDAM)
04:04PM -22.1603 -46.0868 217° Southwest 225 259 22,000  Level FlightAware ADS-B (SDAM)
04:04PM -22.1846 -46.1062 217° Southwest 225 259 22,000  Level FlightAware ADS-B (SDAM)
04:05PM -22.2107 -46.1270 217° Southwest 225 259 22,000  Level FlightAware ADS-B (SDAM)
04:05PM -22.2339 -46.1456 217° Southwest 224 258 22,000  Level FlightAware ADS-B (SDAM)
04:06PM -22.2605 -46.1669 217° Southwest 224 258 22,000  Level FlightAware ADS-B (SDAM)
04:06PM -22.2862 -46.1875 217° Southwest 224 258 22,000  Level FlightAware ADS-B (SDAM)
04:07PM -22.3115 -46.2077 217° Southwest 224 258 22,000  Level FlightAware ADS-B (SDAM)
04:07PM -22.3351 -46.2266 217° Southwest 224 258 22,000  Level FlightAware ADS-B (SDAM)
04:08PM -22.3604 -46.2469 217° Southwest 224 258 22,000  Level FlightAware ADS-B (SDAM)
04:08PM -22.3864 -46.2677 217° Southwest 224 258 22,000  Level FlightAware ADS-B (SDAM)
04:09PM -22.4029 -46.2809 215° Southwest 224 258 22,000  Level FlightAware ADS-B (SDAM)
04:09PM -22.4116 -46.2858 204° Southwest 227 261 22,000  Level FlightAware ADS-B (SBSP / CGH)
04:09PM -22.4198 -46.2882 189° South 232 267 22,000  Level FlightAware ADS-B (SBSP / CGH)
04:09PM -22.4343 -46.2888 180° South 235 270 22,000  Level FlightAware ADS-B (SDAM)
04:10PM -22.4669 -46.2885 179° South 236 272 22,000  Level FlightAware ADS-B (SDAM)
04:10PM -22.5002 -46.2881 179° South 237 273 22,000  Level FlightAware ADS-B (SDAM)
04:11PM -22.5320 -46.2878 179° South 236 272 22,000  Level FlightAware ADS-B (SDAM)
04:11PM -22.5662 -46.2874 179° South 237 273 22,000  Level FlightAware ADS-B (SDAM)
04:12PM -22.5989 -46.2871 179° South 238 274 22,000  Level FlightAware ADS-B (SDAM)
04:12PM -22.6324 -46.2868 179° South 238 274 22,000 -120 Level FlightAware ADS-B (SDAM)
04:13PM -22.6709 -46.2864 179° South 243 280 21,900 -420 Descending FlightAware ADS-B (SDAM)
04:13PM -22.7058 -46.2862 179° South 252 290 21,600 -540 Descending FlightAware ADS-B (SDAM)
04:14PM -22.7416 -46.2854 178° South 259 298 21,400 -720 Descending FlightAware ADS-B (SDAM)
04:14PM -22.7778 -46.2845 178° South 258 297 20,900 -1,020 Descending FlightAware ADS-B (SDAM)
04:15PM -22.8132 -46.2836 178° South 253 291 20,400 -900 Descending FlightAware ADS-B (SDAM)
04:15PM -22.8484 -46.2827 178° South 254 292 20,000 -720 Descending FlightAware ADS-B (SDAM)
04:16PM -22.8837 -46.2818 178° South 251 289 19,700 -540 Descending FlightAware ADS-B (SDAM)
04:16PM -22.9188 -46.2811 178° South 254 292 19,500 -540 Descending FlightAware ADS-B (SDAM)
04:17PM -22.9539 -46.2803 178° South 251 289 19,200 -600 Descending FlightAware ADS-B (SDAM)
04:17PM -22.9688 -46.2806 188° South 245 282 19,100 -600 Descending FlightAware ADS-B (SBSP / CGH)
04:17PM -22.9769 -46.2829 201° Southwest 240 276 19,000 -720 Descending FlightAware ADS-B (SDAM)
04:17PM -22.9863 -46.2890 217° Southwest 236 272 18,900 -600 Descending FlightAware ADS-B (SDAM)
04:17PM -22.9932 -46.2976 237° Southwest 235 270 18,800 -300 Descending FlightAware ADS-B (SDAM)
04:18PM -22.9976 -46.3091 256° West 238 274 18,800 -600 Level FlightAware ADS-B (SDAM)
04:18PM -23.0046 -46.3448 255° West 241 277 18,400 -960 Descending FlightAware ADS-B (SDAM)
04:19PM -23.0137 -46.3792 255° West 236 272 17,900 -1,020 Descending FlightAware ADS-B (SDAM)
04:19PM -23.0224 -46.4133 255° West 235 270 17,400 -1,080 Descending FlightAware ADS-B (SDAM)
04:19PM -23.0264 -46.4286 254° West 235 270 17,100 -1,020 Descending FlightAware ADS-B (SBMT / SAO)
04:20PM -23.0313 -46.4472 255° West 238 274 16,900 -1,440 Descending FlightAware ADS-B (SDAM)
04:20PM -23.0323 -46.4510 255° West 240 276 16,700 -1,200 Descending FlightAware ADS-B (SBMT / SAO)
04:20PM -23.0406 -46.4824 253° West 246 283 16,300 -840 Descending FlightAware ADS-B (SDAM)
04:20PM -23.0456 -46.4925 232° Southwest 243 280 16,200 -900 Descending FlightAware ADS-B (SDAM)
04:20PM -23.0546 -46.5017 221° Southwest 241 277 16,000 -1,080 Descending FlightAware ADS-B (SDAM)
04:21PM -23.0794 -46.5248 222° Southwest 232 267 15,500 -1,080 Descending FlightAware ADS-B (SDAM)
04:21PM -23.0879 -46.5325 216° Southwest 231 266 15,300 -1,080 Descending FlightAware ADS-B (SDAM)
04:21PM -23.1010 -46.5399 204° Southwest 228 262 15,100 -840 Descending FlightAware ADS-B (SBSP / CGH)
04:21PM -23.1016 -46.5402 204° Southwest 229 264 15,100 -1,200 Level FlightAware ADS-B (SBMT / SAO)
04:22PM -23.1303 -46.5529 203° Southwest 234 269 14,500 -1,440 Descending FlightAware ADS-B (SBSP / CGH)
04:22PM -23.1487 -46.5616 203° Southwest 235 270 14,000 -1,800 Descending FlightAware ADS-B (SBMT / SAO)
04:22PM -23.1601 -46.5672 205° Southwest 237 273 13,600 -1,740 Descending FlightAware ADS-B (SBSP / CGH)
04:23PM -23.1817 -46.5780 205° Southwest 256 295 13,000 -1,800 Descending FlightAware ADS-B (SBMT / SAO)
04:23PM -23.1920 -46.5832 206° Southwest 265 305 12,700 -1,800 Descending FlightAware ADS-B (SBSP / CGH)
04:23PM -23.2184 -46.5970 206° Southwest 278 320 12,100 -1,680 Descending FlightAware ADS-B (SBMT / SAO)
04:23PM -23.2266 -46.6014 206° Southwest 276 318 11,900 -1,980 Descending FlightAware ADS-B (SBSP / CGH)
04:24PM -23.2545 -46.6159 205° Southwest 278 320 11,100 -2,040 Descending FlightAware ADS-B (SBMT / SAO)
04:24PM -23.2615 -46.6195 206° Southwest 275 316 10,900 -2,100 Descending FlightAware ADS-B (SBSP / CGH)
04:24PM -23.2904 -46.6345 206° Southwest 263 303 10,000 -2,040 Descending FlightAware ADS-B (SBMT / SAO)
04:24PM -23.2950 -46.6369 206° Southwest 260 299 9,900 -1,920 Descending FlightAware ADS-B (SBSP / CGH)
04:25PM -23.3105 -46.6449 205° Southwest 252 290 9,400 -2,040 Descending FlightAware ADS-B (SBMT / SAO)
04:25PM -23.3272 -46.6535 206° Southwest 245 282 8,900 -2,100 Descending FlightAware ADS-B (SBSP / CGH)
04:25PM -23.3318 -46.6559 205° Southwest 245 282 8,700 -1,920 Descending FlightAware ADS-B (SBMT / SAO)
04:25PM -23.3425 -46.6614 206° Southwest 240 276 8,400 -1,800 Descending FlightAware ADS-B (SBSP / CGH)
04:25PM -23.3513 -46.6660 206° Southwest 239 275 8,100 -2,040 Descending FlightAware ADS-B (SBMT / SAO)
04:25PM -23.3578 -46.6693 206° Southwest 237 273 7,900 -2,040 Descending FlightAware ADS-B (SBSP / CGH)
04:26PM -23.3662 -46.6737 206° Southwest 236 272 7,600 -2,040 Descending FlightAware ADS-B (SBMT / SAO)
04:26PM -23.3724 -46.6770 206° Southwest 235 270 7,400 -2,040 Descending FlightAware ADS-B (SBSP / CGH)
04:26PM -23.3824 -46.6821 205° Southwest 234 269 7,100 -2,220 Descending FlightAware ADS-B (SBMT / SAO)
04:26PM -23.3827 -46.6823 205° Southwest 234 269 7,000 -2,400 Descending FlightAware ADS-B (SDAM)
04:26PM -23.3863 -46.6840 200° South 234 269 6,900 -3,000 Descending FlightAware ADS-B (SBMT / SAO)
04:26PM -23.3885 -46.6848 200° South 234 269 6,800 -2,400 Descending FlightAware ADS-B (SDAM)
04:26PM -23.3923 -46.6859 193° South 234 269 6,700 -1,380 Descending FlightAware ADS-B (SBMT / SAO)
04:26PM -23.3976 -46.6868 185° South 233 268 6,600 -1,800 Descending FlightAware ADS-B (SBSP / CGH)
04:26PM -23.4031 -46.6867 176° South 232 267 6,400 -2,040 Descending FlightAware ADS-B (SBSP / CGH)
04:26PM -23.4035 -46.6867 174° South 232 267 6,400 -2,400 Level FlightAware ADS-B (SBMT / SAO)
04:26PM -23.4088 -46.6857 168° South 230 265 6,200 -2,400 Descending FlightAware ADS-B (SBSP / CGH)
04:26PM -23.4083 -46.6858 168° South 230 265 6,200 -1,200 Level FlightAware ADS-B (SBMT / SAO)
04:26PM -23.4238 -46.6817 165° South 221 254 5,900 -1,200 Descending FlightAware ADS-B (SBSP / CGH)
04:26PM -23.4243 -46.6815 166° South 221 254 5,900 -840 Level FlightAware ADS-B (SBMT / SAO)
04:27PM -23.4384 -46.6776 165° South 209 241 5,700 -900 Descending FlightAware ADS-B (SBSP / CGH)
04:27PM -23.4473 -46.6751 165° South 198 228 5,500 -600 Descending FlightAware ADS-B (SDAM)
04:27PM -23.4562 -46.6726 166° South 192 221 5,500  Level FlightAware ADS-B (SBMT / SAO)
04:27PM -23.4690 -46.6687 159° South 188 216 5,500  Level FlightAware ADS-B (SBSP / CGH)
04:27PM -23.4677 -46.6692 163° South 188 216 5,500  Level FlightAware ADS-B (SBMT / SAO)
04:27PM -23.4722 -46.6670 149° Southeast 188 216 5,500  Level FlightAware ADS-B (SBSP / CGH)
04:27PM -23.4731 -46.6664 146° Southeast 189 217 5,500  Level FlightAware ADS-B (SBMT / SAO)
04:27PM -23.4761 -46.6636 134° Southeast 188 216 5,500  Level FlightAware ADS-B (SBSP / CGH)
04:27PM -23.4772 -46.6621 129° Southeast 188 216 5,500  Level FlightAware ADS-B (SBMT / SAO)
04:28PM -23.4788 -46.6597 123° Southeast 186 214 5,500  Level FlightAware ADS-B (SBSP / CGH)
04:28PM -23.4800 -46.6577 122° Southeast 187 215 5,500  Level FlightAware ADS-B (SBMT / SAO)
04:28PM -23.4811 -46.6556 119° Southeast 190 219 5,500 -1,200 Level FlightAware ADS-B (SDAM)
04:28PM -23.4822 -46.6534 117° Southeast 191 220 5,400 -2,040 Descending FlightAware ADS-B (SBMT / SAO)
04:28PM -23.4837 -46.6464 94° East 197 227 5,200 -1,500 Descending FlightAware ADS-B (SBSP / CGH)
04:28PM -23.4836 -46.6423 87° East 198 228 5,100 -1,020 Descending FlightAware ADS-B (SBMT / SAO)
04:28PM -23.4835 -46.6414 81° East 198 228 5,100 -1,200 Level FlightAware ADS-B (SBSP / CGH)
04:28PM -23.4823 -46.6366 72° East 196 226 5,000 -1,620 Descending FlightAware ADS-B (SBSP / CGH)
04:28PM -23.4772 -46.6233 66° East 188 216 4,600 -1,200 Descending FlightAware ADS-B (SBSP / CGH)
04:28PM -23.4757 -46.6196 67° East 186 214 4,600 -840 Level FlightAware ADS-B (SBMT / SAO)
04:28PM -23.4722 -46.6101 69° East 177 204 4,400 -1,200 Descending FlightAware ADS-B (SBSP / CGH)
04:29PM -23.4711 -46.6065 71° East 176 203 4,300 -780 Descending FlightAware ADS-B (SBMT / SAO)
04:29PM -23.4685 -46.5976 72° East 166 191 4,200 -840 Descending FlightAware ADS-B (SBSP / CGH)
04:29PM -23.4673 -46.5942 69° East 165 190 4,100 -720 Descending FlightAware ADS-B (SBMT / SAO)
04:29PM -23.4654 -46.5901 61° Northeast 161 185 4,100 -300 Level FlightAware ADS-B (SBSP / CGH)
04:29PM -23.4610 -46.5803 68° East 140 161 4,000 -600 Descending FlightAware ADS-B (SBSP / CGH)
04:29PM -23.4578 -46.5708 70° East 119 137 3,800 -780 Descending FlightAware ADS-B (SBSP / CGH)
04:30PM -23.4556 -46.5629 72° East 106 122 3,600 -1,020 Descending FlightAware ADS-B (SBSP / CGH)
04:30PM -23.4533 -46.5551 73° East 103 119 3,300 -1,200 Descending FlightAware ADS-B (SBSP / CGH)
04:30PM -23.4532 -46.5547 73° East 103 119 3,300 -780 Level FlightAware ADS-B (SBMT / SAO)
04:30PM -23.4511 -46.5473 74° East 108 124 3,100 -660 Descending FlightAware ADS-B (SBSP / CGH)
04:30PM -23.4504 -46.5448 75° East 112 129 3,100  Level FlightAware ADS-B (SBMT / SAO)
04:30PM -23.4491 -46.5396 74° East 110 127 3,100 -360 Level FlightAware ADS-B (SBSP / CGH)
04:30PM -23.4480 -46.5350 76° East 109 125 3,000 -480 Descending FlightAware ADS-B (SBMT / SAO)
04:31PM -23.4471 -46.5312 75° East 109 125 3,000 -360 Level FlightAware ADS-B (SBSP / CGH)
04:31PM -23.4453 -46.5242 74° East 109 125 2,900 -840 Descending FlightAware ADS-B (SBSP / CGH)
04:31PM -23.4451 -46.5235 74° East 109 125 2,800 -720 Descending FlightAware ADS-B (SBMT / SAO)
04:31PM -23.4428 -46.5154 73° East 106 122 2,700 -420 Descending FlightAware ADS-B (SBSP / CGH)
04:31PM -23.4411 -46.5089 74° East 108 124 2,600 -600 Descending FlightAware ADS-B (SBMT / SAO)
04:31PM -23.4406 -46.5069 74° East 107 123 2,500 -1,200 Descending FlightAware ADS-B (SBSP / CGH)
04:34PM -23.4321 -46.4695 76° East  Level Estimated
04:35PM -23.4321 -46.4695 North  Level Estimated
04:36PM -23.4321 -46.4695 North  Level Estimated
04:37PM -23.4321 -46.4695 North  Level Estimated
04:38PM -23.4321 -46.4695 North  Level Estimated
04:39PM -23.4321 -46.4695 North  Level Estimated
04:40PM -23.4321 -46.4695 North  Level Estimated
04:41PM -23.4321 -46.4695 North  Level Estimated
04:42PM -23.4321 -46.4695 North  Level Estimated
04:43PM -23.4321 -46.4695 North  Level Estimated
04:44PM -23.4321 -46.4695 North  Level Estimated